createdAt,value
2023-02-08T00:00:51.615Z,1019
2023-02-08T00:01:51.426Z,930
2023-02-08T00:02:51.477Z,796
2023-02-08T00:03:51.432Z,992
2023-02-08T00:05:51.597Z,800
2023-02-08T00:06:51.396Z,941
2023-02-08T00:07:51.418Z,851
2023-02-08T00:08:51.443Z,992
2023-02-08T00:10:51.584Z,997
2023-02-08T00:11:51.420Z,997
2023-02-08T00:12:51.413Z,970
2023-02-08T00:13:51.420Z,773
2023-02-08T00:15:51.648Z,954
2023-02-08T00:16:51.396Z,959
2023-02-08T00:17:51.417Z,971
2023-02-08T00:18:51.432Z,764
2023-02-08T00:20:51.585Z,957
2023-02-08T00:21:51.428Z,792
2023-02-08T00:22:52.613Z,735
2023-02-08T00:23:51.419Z,1014
2023-02-08T00:25:51.613Z,820
2023-02-08T00:26:51.422Z,909
2023-02-08T00:27:51.469Z,799
2023-02-08T00:28:51.393Z,965
2023-02-08T00:30:51.650Z,957
2023-02-08T00:31:51.457Z,743
2023-02-08T00:32:51.391Z,745
2023-02-08T00:33:51.425Z,697
2023-02-08T00:35:51.610Z,732
2023-02-08T00:36:51.452Z,784
2023-02-08T00:37:51.404Z,899
2023-02-08T00:38:51.421Z,990
2023-02-08T00:40:51.608Z,751
2023-02-08T00:41:51.449Z,905
2023-02-08T00:42:51.413Z,729
2023-02-08T00:43:51.402Z,716
2023-02-08T00:45:51.598Z,698
2023-02-08T00:46:51.490Z,836
2023-02-08T00:47:51.428Z,736
2023-02-08T00:48:51.421Z,902
2023-02-08T00:50:51.621Z,710
2023-02-08T00:51:51.397Z,710
2023-02-08T00:52:51.422Z,843
2023-02-08T00:53:51.406Z,901
2023-02-08T00:55:51.603Z,780
2023-02-08T00:56:51.399Z,682
2023-02-08T00:57:51.406Z,882
2023-02-08T00:58:51.435Z,882
2023-02-08T01:00:51.677Z,843
2023-02-08T01:01:51.441Z,819
2023-02-08T01:02:51.425Z,776
2023-02-08T01:03:51.399Z,675
2023-02-08T01:05:51.628Z,817
2023-02-08T01:06:51.407Z,665
2023-02-08T01:07:51.449Z,574
2023-02-08T01:08:51.451Z,845
2023-02-08T01:10:51.607Z,759
2023-02-08T01:11:51.403Z,673
2023-02-08T01:12:51.392Z,845
2023-02-08T01:13:51.454Z,660
2023-02-08T01:15:51.621Z,656
2023-02-08T01:16:51.444Z,652
2023-02-08T01:17:51.432Z,814
2023-02-08T01:18:51.444Z,646
2023-02-08T01:20:51.615Z,657
2023-02-08T01:21:51.411Z,793
2023-02-08T01:22:51.431Z,804
2023-02-08T01:23:51.445Z,634
2023-02-08T01:25:51.646Z,627
2023-02-08T01:26:51.430Z,612
2023-02-08T01:27:51.433Z,638
2023-02-08T01:28:51.429Z,804
2023-02-08T01:30:51.619Z,799
2023-02-08T01:31:51.465Z,763
2023-02-08T01:32:51.446Z,613
2023-02-08T01:33:51.456Z,624
2023-02-08T01:35:51.656Z,764
2023-02-08T01:36:51.436Z,571
2023-02-08T01:37:51.417Z,741
2023-02-08T01:38:51.447Z,567
2023-02-08T01:40:51.647Z,573
2023-02-08T01:41:51.416Z,682
2023-02-08T01:42:51.432Z,700
2023-02-08T01:43:51.446Z,760
2023-02-08T01:45:51.648Z,614
2023-02-08T01:46:51.464Z,542
2023-02-08T01:47:51.449Z,690
2023-02-08T01:48:51.437Z,550
2023-02-08T01:50:51.630Z,698
2023-02-08T01:51:51.452Z,600
2023-02-08T01:52:51.448Z,612
2023-02-08T01:53:51.452Z,603
2023-02-08T01:55:51.624Z,588
2023-02-08T01:56:51.448Z,597
2023-02-08T01:57:51.450Z,590
2023-02-08T01:58:51.431Z,712
2023-02-08T02:00:51.628Z,568
2023-02-08T02:01:51.446Z,587
2023-02-08T02:02:51.412Z,571
2023-02-08T02:03:51.451Z,708
2023-02-08T02:05:51.608Z,562
2023-02-08T02:06:51.456Z,537
2023-02-08T02:07:51.429Z,659
2023-02-08T02:08:51.442Z,524
2023-02-08T02:10:51.619Z,516
2023-02-08T02:11:51.452Z,552
2023-02-08T02:12:51.454Z,679
2023-02-08T02:13:51.450Z,700
2023-02-08T02:15:51.639Z,688
2023-02-08T02:16:51.452Z,628
2023-02-08T02:17:51.442Z,540
2023-02-08T02:18:51.455Z,552
2023-02-08T02:20:51.653Z,537
2023-02-08T02:21:51.450Z,540
2023-02-08T02:22:51.509Z,544
2023-02-08T02:23:51.471Z,676
2023-02-08T02:25:51.644Z,686
2023-02-08T02:26:51.461Z,659
2023-02-08T02:27:51.457Z,528
2023-02-08T02:28:51.450Z,651
2023-02-08T02:30:51.679Z,636
2023-02-08T02:31:51.515Z,524
2023-02-08T02:32:51.446Z,531
2023-02-08T02:33:51.468Z,531
2023-02-08T02:35:51.626Z,665
2023-02-08T02:36:51.437Z,627
2023-02-08T02:37:51.481Z,659
2023-02-08T02:38:51.461Z,657
2023-02-08T02:40:51.644Z,649
2023-02-08T02:41:51.459Z,700
2023-02-08T02:42:51.463Z,542
2023-02-08T02:43:51.445Z,680
2023-02-08T02:45:51.677Z,640
2023-02-08T02:46:51.476Z,507
2023-02-08T02:47:51.468Z,641
2023-02-08T02:48:51.472Z,655
2023-02-08T02:50:51.651Z,632
2023-02-08T02:51:51.495Z,655
2023-02-08T02:52:51.463Z,531
2023-02-08T02:53:51.470Z,655
2023-02-08T02:55:51.646Z,659
2023-02-08T02:56:51.477Z,679
2023-02-08T02:57:51.466Z,545
2023-02-08T02:58:51.471Z,529
2023-02-08T03:00:51.693Z,534
2023-02-08T03:01:51.455Z,628
2023-02-08T03:02:51.447Z,506
2023-02-08T03:03:51.624Z,514
2023-02-08T03:05:51.672Z,491
2023-02-08T03:06:51.464Z,629
2023-02-08T03:07:51.477Z,491
2023-02-08T03:08:51.469Z,628
2023-02-08T03:10:51.667Z,400
2023-02-08T03:11:51.491Z,553
2023-02-08T03:12:51.456Z,691
2023-02-08T03:13:51.464Z,553
2023-02-08T03:15:51.662Z,547
2023-02-08T03:16:51.502Z,681
2023-02-08T03:17:51.460Z,674
2023-02-08T03:18:51.449Z,653
2023-02-08T03:20:51.651Z,656
2023-02-08T03:21:51.498Z,611
2023-02-08T03:22:51.494Z,493
2023-02-08T03:23:51.513Z,602
2023-02-08T03:25:51.667Z,611
2023-02-08T03:26:51.484Z,645
2023-02-08T03:27:51.542Z,665
2023-02-08T03:28:51.489Z,665
2023-02-08T03:30:51.741Z,532
2023-02-08T03:31:51.557Z,550
2023-02-08T03:32:51.525Z,524
2023-02-08T03:33:51.488Z,653
2023-02-08T03:35:51.660Z,628
2023-02-08T03:36:51.475Z,526
2023-02-08T03:37:51.464Z,656
2023-02-08T03:38:51.494Z,646
2023-02-08T03:40:51.679Z,535
2023-02-08T03:41:51.493Z,598
2023-02-08T03:42:51.471Z,576
2023-02-08T03:43:51.498Z,607
2023-02-08T03:45:51.701Z,550
2023-02-08T03:46:51.496Z,486
2023-02-08T03:47:51.486Z,610
2023-02-08T03:48:51.467Z,605
2023-02-08T03:50:51.718Z,519
2023-02-08T03:51:51.483Z,545
2023-02-08T03:52:51.485Z,545
2023-02-08T03:53:51.518Z,562
2023-02-08T03:55:51.677Z,673
2023-02-08T03:56:51.490Z,600
2023-02-08T03:57:51.514Z,649
2023-02-08T03:58:51.464Z,545
2023-02-08T04:00:51.660Z,542
2023-02-08T04:01:51.474Z,507
2023-02-08T04:02:51.520Z,573
2023-02-08T04:03:51.518Z,640
2023-02-08T04:05:51.699Z,501
2023-02-08T04:06:51.509Z,496
2023-02-08T04:07:51.496Z,501
2023-02-08T04:08:51.582Z,493
2023-02-08T04:10:51.674Z,507
2023-02-08T04:11:51.490Z,621
2023-02-08T04:12:51.499Z,624
2023-02-08T04:13:51.515Z,480
2023-02-08T04:15:51.724Z,490
2023-02-08T04:16:51.501Z,496
2023-02-08T04:17:51.504Z,621
2023-02-08T04:18:51.489Z,617
2023-02-08T04:20:51.691Z,613
2023-02-08T04:21:51.483Z,588
2023-02-08T04:22:51.503Z,587
2023-02-08T04:23:51.468Z,465
2023-02-08T04:25:51.663Z,464
2023-02-08T04:26:51.498Z,581
2023-02-08T04:27:51.554Z,471
2023-02-08T04:28:51.463Z,464
2023-02-08T04:30:51.745Z,464
2023-02-08T04:31:51.544Z,614
2023-02-08T04:32:51.490Z,491
2023-02-08T04:33:51.472Z,492
2023-02-08T04:35:51.706Z,612
2023-02-08T04:36:51.501Z,591
2023-02-08T04:37:51.491Z,477
2023-02-08T04:38:51.496Z,475
2023-02-08T04:40:51.703Z,480
2023-02-08T04:41:51.506Z,409
2023-02-08T04:42:51.473Z,451
2023-02-08T04:43:51.487Z,565
2023-02-08T04:45:51.708Z,565
2023-02-08T04:46:51.484Z,597
2023-02-08T04:47:51.480Z,569
2023-02-08T04:48:51.484Z,590
2023-02-08T04:50:51.719Z,591
2023-02-08T04:51:51.513Z,585
2023-02-08T04:52:51.488Z,464
2023-02-08T04:53:51.549Z,585
2023-02-08T04:55:51.703Z,466
2023-02-08T04:56:51.500Z,585
2023-02-08T04:57:51.490Z,585
2023-02-08T04:58:51.518Z,436
2023-02-08T05:00:51.713Z,441
2023-02-08T05:01:51.604Z,464
2023-02-08T05:02:51.520Z,555
2023-02-08T05:03:51.511Z,595
2023-02-08T05:05:51.677Z,456
2023-02-08T05:06:51.510Z,455
2023-02-08T05:07:51.534Z,550
2023-02-08T05:08:51.516Z,456
2023-02-08T05:10:51.688Z,448
2023-02-08T05:11:51.506Z,554
2023-02-08T05:12:51.542Z,569
2023-02-08T05:13:51.483Z,448
2023-02-08T05:15:51.716Z,564
2023-02-08T05:16:51.472Z,459
2023-02-08T05:17:51.479Z,447
2023-02-08T05:18:51.517Z,420
2023-02-08T05:20:51.716Z,447
2023-02-08T05:21:51.495Z,451
2023-02-08T05:22:51.516Z,450
2023-02-08T05:23:51.525Z,548
2023-02-08T05:25:51.694Z,453
2023-02-08T05:26:51.495Z,529
2023-02-08T05:27:51.510Z,528
2023-02-08T05:28:51.504Z,419
2023-02-08T05:30:51.723Z,529
2023-02-08T05:31:51.578Z,584
2023-02-08T05:32:51.484Z,460
2023-02-08T05:33:51.524Z,453
2023-02-08T05:35:51.753Z,557
2023-02-08T05:36:51.541Z,516
2023-02-08T05:37:51.524Z,638
2023-02-08T05:38:51.497Z,501
2023-02-08T05:40:51.720Z,502
2023-02-08T05:41:51.522Z,621
2023-02-08T05:42:51.504Z,571
2023-02-08T05:43:51.488Z,621
2023-02-08T05:45:51.711Z,615
2023-02-08T05:46:51.540Z,672
2023-02-08T05:47:51.487Z,671
2023-02-08T05:48:51.516Z,646
2023-02-08T05:50:51.708Z,645
2023-02-08T05:51:51.501Z,686
2023-02-08T05:52:51.524Z,538
2023-02-08T05:53:51.495Z,650
2023-02-08T05:55:51.710Z,640
2023-02-08T05:56:51.550Z,631
2023-02-08T05:57:51.522Z,603
2023-02-08T05:58:51.536Z,611
2023-02-08T06:00:51.692Z,631
2023-02-08T06:01:51.522Z,614
2023-02-08T06:02:51.561Z,524
2023-02-08T06:03:51.533Z,584
2023-02-08T06:05:51.700Z,488
2023-02-08T06:06:51.499Z,578
2023-02-08T06:07:51.520Z,520
2023-02-08T06:08:51.537Z,632
2023-02-08T06:10:51.704Z,520
2023-02-08T06:11:51.501Z,579
2023-02-08T06:12:51.512Z,488
2023-02-08T06:13:51.525Z,488
2023-02-08T06:15:51.708Z,488
2023-02-08T06:16:51.576Z,574
2023-02-08T06:17:51.538Z,562
2023-02-08T06:18:51.517Z,495
2023-02-08T06:20:51.706Z,495
2023-02-08T06:21:51.517Z,538
2023-02-08T06:22:51.540Z,526
2023-02-08T06:23:51.525Z,603
2023-02-08T06:25:51.688Z,567
2023-02-08T06:26:51.523Z,593
2023-02-08T06:27:51.555Z,605
2023-02-08T06:28:51.507Z,598
2023-02-08T06:30:51.717Z,594
2023-02-08T06:31:51.634Z,675
2023-02-08T06:32:51.512Z,665
2023-02-08T06:33:51.506Z,659
2023-02-08T06:35:51.708Z,632
2023-02-08T06:36:51.504Z,675
2023-02-08T06:37:51.520Z,654
2023-02-08T06:38:51.510Z,632
2023-02-08T06:40:51.715Z,632
2023-02-08T06:41:51.525Z,620
2023-02-08T06:42:51.538Z,598
2023-02-08T06:43:51.525Z,615
2023-02-08T06:45:51.776Z,593
2023-02-08T06:46:51.524Z,620
2023-02-08T06:47:51.551Z,606
2023-02-08T06:48:51.541Z,606
2023-02-08T06:50:51.737Z,606
2023-02-08T06:51:51.526Z,646
2023-02-08T06:52:51.517Z,649
2023-02-08T06:53:51.550Z,646
2023-02-08T06:55:51.710Z,646
2023-02-08T06:56:52.159Z,600
2023-02-08T06:57:51.552Z,600
2023-02-08T06:58:51.539Z,600
2023-02-08T07:00:51.748Z,600
2023-02-08T07:01:51.546Z,649
2023-02-08T07:02:51.558Z,652
2023-02-08T07:03:51.581Z,646
2023-02-08T07:06:03.977Z,646
2023-02-08T07:06:51.546Z,646
2023-02-08T07:07:51.535Z,655
2023-02-08T07:08:51.528Z,652
2023-02-08T07:10:51.753Z,674
2023-02-08T07:11:51.543Z,640
2023-02-08T07:12:51.521Z,653
2023-02-08T07:13:51.543Z,640
2023-02-08T07:15:51.713Z,640
2023-02-08T07:16:51.632Z,654
2023-02-08T07:17:51.585Z,654
2023-02-08T07:18:51.578Z,655
2023-02-08T07:20:51.734Z,654
2023-02-08T07:21:51.509Z,749
2023-02-08T07:22:51.543Z,646
2023-02-08T07:23:51.526Z,646
2023-02-08T07:25:51.733Z,665
2023-02-08T07:26:51.526Z,646
2023-02-08T07:27:51.547Z,645
2023-02-08T07:28:51.551Z,640
2023-02-08T07:30:51.738Z,650
2023-02-08T07:31:51.591Z,640
2023-02-08T07:32:51.551Z,640
2023-02-08T07:33:51.593Z,659
2023-02-08T07:35:51.742Z,640
2023-02-08T07:36:51.587Z,681
2023-02-08T07:37:51.555Z,673
2023-02-08T07:38:51.560Z,673
2023-02-08T07:40:51.736Z,673
2023-02-08T07:41:51.558Z,632
2023-02-08T07:42:51.559Z,632
2023-02-08T07:43:51.558Z,637
2023-02-08T07:45:51.774Z,632
2023-02-08T07:46:51.573Z,665
2023-02-08T07:47:51.559Z,665
2023-02-08T07:48:51.597Z,665
2023-02-08T07:50:51.763Z,673
2023-02-08T07:51:51.548Z,665
2023-02-08T07:52:51.558Z,665
2023-02-08T07:53:51.552Z,665
2023-02-08T07:55:51.753Z,665
2023-02-08T07:56:51.586Z,671
2023-02-08T07:57:51.596Z,665
2023-02-08T07:58:51.557Z,665
2023-02-08T08:00:51.760Z,665
2023-02-08T08:01:51.620Z,665
2023-02-08T08:02:51.558Z,665
2023-02-08T08:03:51.717Z,665
2023-02-08T08:05:53.100Z,665
2023-02-08T08:06:51.594Z,665
2023-02-08T08:07:51.600Z,665
2023-02-08T08:08:51.607Z,665
2023-02-08T08:10:51.743Z,665
2023-02-08T08:11:51.564Z,617
2023-02-08T08:12:51.583Z,617
2023-02-08T08:13:51.556Z,617
2023-02-08T08:15:51.732Z,617
2023-02-08T08:16:51.568Z,654
2023-02-08T08:17:51.572Z,654
2023-02-08T08:18:51.566Z,654
2023-02-08T08:20:51.768Z,654
2023-02-08T08:21:51.539Z,673
2023-02-08T08:22:51.563Z,673
2023-02-08T08:23:51.566Z,673
2023-02-08T08:25:51.761Z,673
2023-02-08T08:26:51.564Z,631
2023-02-08T08:27:51.578Z,632
2023-02-08T08:28:51.595Z,631
2023-02-08T08:30:51.826Z,631
2023-02-08T08:31:51.610Z,681
2023-02-08T08:32:51.568Z,681
2023-02-08T08:33:51.575Z,681
2023-02-08T08:35:51.765Z,681
2023-02-08T08:36:51.570Z,665
2023-02-08T08:37:51.575Z,665
2023-02-08T08:38:51.548Z,665
2023-02-08T08:40:51.786Z,665
2023-02-08T08:41:51.581Z,656
2023-02-08T08:42:51.572Z,656
2023-02-08T08:43:51.572Z,656
2023-02-08T08:45:52.983Z,656
2023-02-08T08:46:51.579Z,691
2023-02-08T08:47:51.584Z,691
2023-02-08T08:48:51.586Z,691
2023-02-08T08:50:51.776Z,691
2023-02-08T08:51:51.578Z,656
2023-02-08T08:52:51.584Z,656
2023-02-08T08:53:51.590Z,656
2023-02-08T08:55:51.760Z,656
2023-02-08T08:56:51.540Z,656
2023-02-08T08:57:51.588Z,656
2023-02-08T08:58:51.598Z,656
2023-02-08T09:00:51.778Z,665
2023-02-08T09:01:51.645Z,595
2023-02-08T09:02:51.593Z,595
2023-02-08T09:03:51.575Z,595
2023-02-08T09:05:51.778Z,595
2023-02-08T09:06:51.593Z,668
2023-02-08T09:07:51.547Z,681
2023-02-08T09:08:51.888Z,679
2023-02-08T09:10:51.774Z,668
2023-02-08T09:11:51.599Z,640
2023-02-08T09:12:51.629Z,640
2023-02-08T09:13:51.561Z,640
2023-02-08T09:15:51.804Z,640
2023-02-08T09:16:51.585Z,649
2023-02-08T09:17:51.589Z,649
2023-02-08T09:18:51.577Z,649
2023-02-08T09:20:51.766Z,665
2023-02-08T09:21:51.587Z,588
2023-02-08T09:22:51.548Z,602
2023-02-08T09:23:51.590Z,620
2023-02-08T09:25:51.767Z,606
2023-02-08T09:26:51.612Z,550
2023-02-08T09:27:51.594Z,542
2023-02-08T09:28:51.553Z,584
2023-02-08T09:30:51.766Z,602
2023-02-08T09:31:51.644Z,534
2023-02-08T09:32:51.573Z,593
2023-02-08T09:33:51.582Z,534
2023-02-08T09:35:51.786Z,597
2023-02-08T09:36:51.571Z,617
2023-02-08T09:37:51.582Z,542
2023-02-08T09:38:51.559Z,588
2023-02-08T09:40:51.772Z,576
2023-02-08T09:41:51.600Z,581
2023-02-08T09:42:51.594Z,590
2023-02-08T09:43:51.570Z,581
2023-02-08T09:45:59.773Z,581
2023-02-08T09:46:51.592Z,600
2023-02-08T09:47:51.603Z,581
2023-02-08T09:48:51.607Z,593
2023-02-08T09:50:51.777Z,585
2023-02-08T09:51:51.592Z,581
2023-02-08T09:52:51.580Z,587
2023-02-08T09:53:51.595Z,581
2023-02-08T09:55:51.793Z,581
2023-02-08T09:56:51.600Z,624
2023-02-08T09:57:51.579Z,624
2023-02-08T09:58:51.595Z,624
2023-02-08T10:00:51.820Z,624
2023-02-08T10:01:51.610Z,564
2023-02-08T10:02:51.616Z,564
2023-02-08T10:03:51.578Z,564
2023-02-08T10:05:51.788Z,564
2023-02-08T10:06:51.601Z,561
2023-02-08T10:07:51.580Z,561
2023-02-08T10:08:51.607Z,561
2023-02-08T10:10:51.777Z,561
2023-02-08T10:11:51.599Z,531
2023-02-08T10:12:51.643Z,531
2023-02-08T10:13:51.616Z,531
2023-02-08T10:15:52.026Z,554
2023-02-08T10:16:51.642Z,472
2023-02-08T10:17:51.914Z,529
2023-02-08T10:18:51.587Z,472
2023-02-08T10:20:51.816Z,472
2023-02-08T10:21:51.609Z,481
2023-02-08T10:22:51.604Z,532
2023-02-08T10:23:51.566Z,481
2023-02-08T10:25:51.828Z,540
2023-02-08T10:26:51.638Z,500
2023-02-08T10:27:51.640Z,438
2023-02-08T10:28:52.470Z,524
2023-02-08T10:30:51.918Z,438
2023-02-08T10:31:51.709Z,551
2023-02-08T10:32:51.668Z,457
2023-02-08T10:33:51.717Z,542
2023-02-08T10:35:51.921Z,551
2023-02-08T10:36:52.003Z,438
2023-02-08T10:37:52.296Z,438
2023-02-08T10:38:51.700Z,542
2023-02-08T10:40:51.880Z,456
2023-02-08T10:41:51.684Z,413
2023-02-08T10:42:51.976Z,497
2023-02-08T10:43:52.297Z,498
2023-02-08T10:45:52.227Z,497
2023-02-08T10:46:52.960Z,567
2023-02-08T10:47:52.264Z,454
2023-02-08T10:48:51.723Z,572
2023-02-08T10:50:52.992Z,564
2023-02-08T10:51:51.807Z,480
2023-02-08T10:52:51.714Z,581
2023-02-08T10:53:51.701Z,591
2023-02-08T10:55:51.876Z,480
2023-02-08T10:56:51.999Z,576
2023-02-08T10:57:51.966Z,492
2023-02-08T10:58:52.784Z,477
2023-02-08T11:00:51.950Z,478
2023-02-08T11:01:52.745Z,541
2023-02-08T11:02:52.729Z,451
2023-02-08T11:03:51.780Z,532
2023-02-08T11:05:52.222Z,435
2023-02-08T11:06:51.701Z,542
2023-02-08T11:07:53.026Z,548
2023-02-08T11:08:51.728Z,428
2023-02-08T11:10:52.190Z,555
2023-02-08T11:11:51.757Z,432
2023-02-08T11:12:51.732Z,530
2023-02-08T11:13:51.692Z,540
2023-02-08T11:15:51.910Z,567
2023-02-08T11:16:51.757Z,540
2023-02-08T11:17:51.715Z,462
2023-02-08T11:18:52.744Z,570
2023-02-08T11:20:55.203Z,578
2023-02-08T11:21:52.031Z,540
2023-02-08T11:22:52.008Z,463
2023-02-08T11:23:51.702Z,466
2023-02-08T11:25:54.926Z,447
2023-02-08T11:26:51.731Z,576
2023-02-08T11:27:51.757Z,523
2023-02-08T11:28:51.732Z,643
2023-02-08T11:30:52.532Z,650
2023-02-08T11:31:52.040Z,529
2023-02-08T11:32:51.740Z,654
2023-02-08T11:33:52.784Z,697
2023-02-08T11:35:52.525Z,678
2023-02-08T11:36:52.743Z,541
2023-02-08T11:37:51.756Z,545
2023-02-08T11:38:53.027Z,691
2023-02-08T11:40:51.912Z,665
2023-02-08T11:41:51.738Z,518
2023-02-08T11:42:51.744Z,524
2023-02-08T11:43:51.718Z,533
2023-02-08T11:45:51.925Z,654
2023-02-08T11:46:52.012Z,542
2023-02-08T11:47:51.643Z,529
2023-02-08T11:48:51.664Z,674
2023-02-08T11:50:51.830Z,475
2023-02-08T11:51:51.613Z,697
2023-02-08T11:52:51.619Z,581
2023-02-08T11:53:51.621Z,611
2023-02-08T11:55:51.838Z,592
2023-02-08T11:56:51.612Z,706
2023-02-08T11:57:51.645Z,564
2023-02-08T11:58:51.621Z,654
2023-02-08T12:00:51.855Z,700
2023-02-08T12:01:51.651Z,519
2023-02-08T12:02:51.641Z,612
2023-02-08T12:03:51.667Z,523
2023-02-08T12:05:51.820Z,503
2023-02-08T12:06:51.634Z,547
2023-02-08T12:07:51.642Z,492
2023-02-08T12:08:51.669Z,630
2023-02-08T12:10:51.862Z,507
2023-02-08T12:11:51.648Z,620
2023-02-08T12:12:51.666Z,505
2023-02-08T12:13:51.648Z,606
2023-02-08T12:15:58.446Z,672
2023-02-08T12:16:51.654Z,672
2023-02-08T12:17:51.665Z,676
2023-02-08T12:18:51.648Z,528
2023-02-08T12:20:51.820Z,537
2023-02-08T12:21:51.645Z,716
2023-02-08T12:22:51.612Z,581
2023-02-08T12:23:51.650Z,545
2023-02-08T12:25:51.859Z,679
2023-02-08T12:26:51.678Z,770
2023-02-08T12:27:51.675Z,632
2023-02-08T12:28:51.658Z,610
2023-02-08T12:30:51.894Z,551
2023-02-08T12:31:51.699Z,869
2023-02-08T12:32:51.683Z,814
2023-02-08T12:33:51.688Z,649
2023-02-08T12:36:03.464Z,629
2023-02-08T12:36:51.655Z,680
2023-02-08T12:37:51.623Z,748
2023-02-08T12:38:51.640Z,736
2023-02-08T12:40:51.860Z,589
2023-02-08T12:41:51.647Z,638
2023-02-08T12:42:51.615Z,602
2023-02-08T12:43:51.650Z,638
2023-02-08T12:45:51.843Z,526
2023-02-08T12:46:51.631Z,646
2023-02-08T12:48:03.214Z,506
2023-02-08T12:48:51.645Z,641
2023-02-08T12:50:51.831Z,637
2023-02-08T12:51:51.656Z,643
2023-02-08T12:52:51.628Z,655
2023-02-08T12:53:51.666Z,495
2023-02-08T12:55:51.857Z,517
2023-02-08T12:57:01.448Z,535
2023-02-08T12:57:51.656Z,534
2023-02-08T12:58:52.477Z,432
2023-02-08T13:00:51.892Z,424
2023-02-08T13:01:51.841Z,541
2023-02-08T13:02:51.672Z,452
2023-02-08T13:03:51.644Z,452
2023-02-08T13:06:01.520Z,452
2023-02-08T13:06:51.638Z,408
2023-02-08T13:07:51.668Z,415
2023-02-08T13:08:51.680Z,408
2023-02-08T13:10:51.852Z,452
2023-02-08T13:11:51.635Z,572
2023-02-08T13:12:51.642Z,470
2023-02-08T13:13:51.639Z,588
2023-02-08T13:15:51.948Z,590
2023-02-08T13:16:51.638Z,605
2023-02-08T13:17:51.665Z,492
2023-02-08T13:18:51.670Z,585
2023-02-08T13:20:51.856Z,549
2023-02-08T13:21:51.677Z,500
2023-02-08T13:22:51.660Z,451
2023-02-08T13:23:53.009Z,451
2023-02-08T13:25:51.832Z,477
2023-02-08T13:26:51.650Z,519
2023-02-08T13:27:51.723Z,603
2023-02-08T13:28:51.673Z,519
2023-02-08T13:30:51.959Z,631
2023-02-08T13:31:51.728Z,553
2023-02-08T13:32:51.672Z,588
2023-02-08T13:34:01.130Z,584
2023-02-08T13:35:51.860Z,485
2023-02-08T13:36:51.686Z,637
2023-02-08T13:37:51.654Z,526
2023-02-08T13:38:51.685Z,526
2023-02-08T13:40:51.870Z,526
2023-02-08T13:41:51.679Z,490
2023-02-08T13:42:51.689Z,490
2023-02-08T13:43:51.683Z,564
2023-02-08T13:45:51.846Z,490
2023-02-08T13:46:51.699Z,561
2023-02-08T13:47:51.678Z,544
2023-02-08T13:48:51.666Z,544
2023-02-08T13:50:51.868Z,532
2023-02-08T13:51:51.656Z,536
2023-02-08T13:52:51.662Z,545
2023-02-08T13:53:51.694Z,526
2023-02-08T13:55:51.852Z,526
2023-02-08T13:56:51.666Z,497
2023-02-08T13:57:51.655Z,497
2023-02-08T13:58:51.678Z,497
2023-02-08T14:00:51.911Z,497
2023-02-08T14:01:51.687Z,452
2023-02-08T14:02:51.703Z,452
2023-02-08T14:03:51.691Z,452
2023-02-08T14:05:51.886Z,452
2023-02-08T14:06:51.711Z,443
2023-02-08T14:07:51.710Z,443
2023-02-08T14:08:51.660Z,443
2023-02-08T14:10:51.888Z,443
2023-02-08T14:11:51.695Z,443
2023-02-08T14:12:51.669Z,459
2023-02-08T14:13:51.713Z,462
2023-02-08T14:15:51.943Z,450
2023-02-08T14:16:51.687Z,455
2023-02-08T14:17:51.694Z,452
2023-02-08T14:18:51.692Z,452
2023-02-08T14:20:51.871Z,464
2023-02-08T14:21:51.675Z,466
2023-02-08T14:22:51.700Z,461
2023-02-08T14:23:51.723Z,461
2023-02-08T14:25:51.855Z,461
2023-02-08T14:26:51.696Z,461
2023-02-08T14:27:51.788Z,461
2023-02-08T14:28:51.688Z,461
2023-02-08T14:30:51.858Z,480
2023-02-08T14:31:51.729Z,485
2023-02-08T14:32:51.707Z,485
2023-02-08T14:33:51.686Z,485
2023-02-08T14:35:51.878Z,485
2023-02-08T14:36:51.668Z,461
2023-02-08T14:37:53.952Z,461
2023-02-08T14:38:51.678Z,461
2023-02-08T14:40:51.884Z,461
2023-02-08T14:41:51.739Z,461
2023-02-08T14:42:51.708Z,461
2023-02-08T14:43:51.712Z,461
2023-02-08T14:45:51.892Z,461
2023-02-08T14:46:51.727Z,497
2023-02-08T14:47:51.697Z,497
2023-02-08T14:48:51.709Z,497
2023-02-08T14:50:51.902Z,497
2023-02-08T14:51:51.681Z,526
2023-02-08T14:52:51.723Z,526
2023-02-08T14:53:51.671Z,526
2023-02-08T14:55:51.898Z,526
2023-02-08T14:56:51.678Z,476
2023-02-08T14:57:51.707Z,476
2023-02-08T14:58:51.736Z,476
2023-02-08T15:00:51.955Z,476
2023-02-08T15:01:51.701Z,534
2023-02-08T15:02:51.713Z,534
2023-02-08T15:03:51.737Z,534
2023-02-08T15:05:51.875Z,534
2023-02-08T15:06:53.044Z,562
2023-02-08T15:07:51.684Z,562
2023-02-08T15:08:51.705Z,562
2023-02-08T15:10:51.884Z,562
2023-02-08T15:11:51.712Z,687
2023-02-08T15:12:51.712Z,687
2023-02-08T15:13:51.735Z,687
2023-02-08T15:15:51.910Z,687
2023-02-08T15:16:51.714Z,676
2023-02-08T15:17:51.717Z,676
2023-02-08T15:18:51.716Z,676
2023-02-08T15:20:51.913Z,676
2023-02-08T15:21:51.689Z,704
2023-02-08T15:22:51.722Z,704
2023-02-08T15:23:51.716Z,704
2023-02-08T15:25:51.917Z,704
2023-02-08T15:26:51.688Z,714
2023-02-08T15:27:51.729Z,714
2023-02-08T15:28:51.780Z,714
2023-02-08T15:30:51.907Z,714
2023-02-08T15:31:51.791Z,714
2023-02-08T15:32:51.724Z,714
2023-02-08T15:33:51.694Z,714
2023-02-08T15:35:51.878Z,714
2023-02-08T15:36:51.712Z,748
2023-02-08T15:37:51.729Z,748
2023-02-08T15:38:51.715Z,748
2023-02-08T15:40:51.880Z,748
2023-02-08T15:41:51.732Z,748
2023-02-08T15:42:51.729Z,748
2023-02-08T15:43:51.709Z,748
2023-02-08T15:45:51.934Z,748
2023-02-08T15:47:51.721Z,807
2023-02-08T15:48:51.712Z,807
2023-02-08T15:50:51.919Z,807
2023-02-08T15:51:51.681Z,807
2023-02-08T15:52:51.721Z,807
2023-02-08T15:53:51.729Z,807
2023-02-08T15:55:51.890Z,807
2023-02-08T15:56:51.724Z,784
2023-02-08T15:57:51.729Z,784
2023-02-08T15:58:51.726Z,784
2023-02-08T16:00:51.923Z,784
2023-02-08T16:01:51.751Z,732
2023-02-08T16:02:51.748Z,732
2023-02-08T16:03:51.779Z,732
2023-02-08T16:05:51.906Z,732
2023-02-08T16:06:51.714Z,773
2023-02-08T16:07:51.734Z,773
2023-02-08T16:08:51.693Z,773
2023-02-08T16:10:51.906Z,773
2023-02-08T16:11:51.700Z,784
2023-02-08T16:12:51.732Z,784
2023-02-08T16:13:51.734Z,784
2023-02-08T16:15:55.533Z,784
2023-02-08T16:16:51.723Z,751
2023-02-08T16:17:51.745Z,751
2023-02-08T16:18:51.737Z,751
2023-02-08T16:20:51.939Z,751
2023-02-08T16:21:51.739Z,784
2023-02-08T16:22:51.722Z,784
2023-02-08T16:23:51.846Z,784
2023-02-08T16:25:51.922Z,784
2023-02-08T16:26:51.699Z,796
2023-02-08T16:27:51.832Z,796
2023-02-08T16:28:51.727Z,796
2023-02-08T16:30:52.066Z,796
2023-02-08T16:31:51.807Z,784
2023-02-08T16:32:51.727Z,784
2023-02-08T16:33:51.745Z,784
2023-02-08T16:35:51.940Z,784
2023-02-08T16:36:51.739Z,796
2023-02-08T16:37:51.743Z,796
2023-02-08T16:38:51.751Z,796
2023-02-08T16:40:51.968Z,796
2023-02-08T16:41:51.750Z,751
2023-02-08T16:42:51.704Z,751
2023-02-08T16:43:51.774Z,751
2023-02-08T16:45:51.930Z,751
2023-02-08T16:46:51.741Z,762
2023-02-08T16:47:51.757Z,762
2023-02-08T16:48:51.747Z,762
2023-02-08T16:50:51.923Z,762
2023-02-08T16:51:51.745Z,773
2023-02-08T16:52:51.725Z,773
2023-02-08T16:53:51.790Z,773
2023-02-08T16:55:51.944Z,773
2023-02-08T16:56:51.760Z,762
2023-02-08T16:57:51.751Z,762
2023-02-08T16:58:51.753Z,762
2023-02-08T17:00:51.919Z,762
2023-02-08T17:01:51.753Z,762
2023-02-08T17:02:51.760Z,762
2023-02-08T17:03:51.987Z,762
2023-02-08T17:05:51.931Z,762
2023-02-08T17:06:51.734Z,762
2023-02-08T17:07:51.752Z,762
2023-02-08T17:08:51.759Z,762
2023-02-08T17:10:52.009Z,762
2023-02-08T17:11:51.731Z,741
2023-02-08T17:12:52.431Z,741